createdAt,value
2023-04-15T00:02:19.907Z,6.95
2023-04-15T00:05:06.163Z,6.90
2023-04-15T00:07:51.466Z,6.78
2023-04-15T00:13:18.585Z,6.90
2023-04-15T00:16:01.687Z,6.72
2023-04-15T00:18:43.951Z,7.65
2023-04-15T00:21:29.060Z,6.80
2023-04-15T00:24:11.758Z,7.47
2023-04-15T00:26:54.651Z,7.43
2023-04-15T00:29:36.903Z,7.55
2023-04-15T00:32:20.336Z,7.45
2023-04-15T00:35:03.292Z,7.90
2023-04-15T00:37:46.565Z,7.47
2023-04-15T00:40:28.700Z,7.10
2023-04-15T00:43:11.154Z,7.80
2023-04-15T00:45:57.460Z,7.38
2023-04-15T00:48:40.813Z,8.13
2023-04-15T00:51:23.896Z,7.38
2023-04-15T00:54:07.860Z,7.50
2023-04-15T00:56:50.073Z,7.32
2023-04-15T00:59:34.492Z,7.45
2023-04-15T01:02:17.005Z,7.63
2023-04-15T01:04:59.529Z,7.22
2023-04-15T01:07:41.714Z,7.78
2023-04-15T01:10:24.169Z,7.55
2023-04-15T01:13:06.939Z,7.30
2023-04-15T01:15:49.469Z,7.35
2023-04-15T01:18:32.227Z,8.05
2023-04-15T01:21:15.253Z,7.50
2023-04-15T01:23:58.522Z,7.22
2023-04-15T01:26:42.370Z,7.40
2023-04-15T01:29:25.360Z,7.78
2023-04-15T01:32:07.895Z,8.38
2023-04-15T01:34:50.321Z,8.27
2023-04-15T01:37:33.128Z,7.75
2023-04-15T01:40:15.506Z,9.02
2023-04-15T01:42:57.973Z,8.98
2023-04-15T01:45:40.083Z,8.57
2023-04-15T01:48:23.259Z,8.65
2023-04-15T01:51:05.824Z,9.02
2023-04-15T01:53:48.442Z,8.38
2023-04-15T01:56:31.333Z,8.70
2023-04-15T01:59:13.884Z,8.52
2023-04-15T02:01:57.539Z,8.27
2023-04-15T02:04:40.122Z,8.43
2023-04-15T02:07:22.350Z,8.90
2023-04-15T02:10:05.785Z,9.30
2023-04-15T02:12:51.087Z,9.38
2023-04-15T02:15:34.373Z,9.68
2023-04-15T02:18:17.120Z,9.60
2023-04-15T02:20:59.673Z,9.65
2023-04-15T02:23:41.972Z,9.80
2023-04-15T02:26:25.364Z,10.70
2023-04-15T02:29:09.734Z,10.65
2023-04-15T02:31:52.186Z,10.18
2023-04-15T02:34:36.080Z,10.38
2023-04-15T02:37:20.402Z,11.15
2023-04-15T02:40:03.305Z,11.07
2023-04-15T02:42:45.854Z,11.48
2023-04-15T02:45:30.894Z,11.73
2023-04-15T02:48:19.769Z,11.27
2023-04-15T02:51:14.291Z,11.93
2023-04-15T02:53:56.751Z,11.90
2023-04-15T02:56:38.876Z,12.85
2023-04-15T02:59:21.495Z,12.25
2023-04-15T03:02:03.881Z,13.05
2023-04-15T03:04:46.500Z,13.13
2023-04-15T03:07:28.791Z,12.70
2023-04-15T03:10:11.822Z,12.90
2023-04-15T03:12:54.064Z,12.88
2023-04-15T03:15:39.025Z,14.10
2023-04-15T03:18:21.698Z,13.27
2023-04-15T03:21:04.690Z,12.85
2023-04-15T03:23:50.311Z,13.13
2023-04-15T03:26:33.747Z,12.63
2023-04-15T03:29:21.121Z,13.13
2023-04-15T03:32:04.263Z,12.95
2023-04-15T03:34:49.668Z,13.60
2023-04-15T03:37:32.356Z,12.70
2023-04-15T03:40:14.671Z,13.25
2023-04-15T03:42:57.186Z,13.65
2023-04-15T03:45:39.506Z,13.57
2023-04-15T03:48:21.906Z,13.25
2023-04-15T03:51:04.142Z,13.68
2023-04-15T03:53:46.556Z,13.13
2023-04-15T03:56:28.753Z,12.75
2023-04-15T03:59:11.487Z,13.65
2023-04-15T04:01:53.754Z,11.20
2023-04-15T04:04:36.354Z,11.48
2023-04-15T04:07:18.887Z,12.55
2023-04-15T04:10:01.728Z,11.82
2023-04-15T04:12:43.948Z,11.15
2023-04-15T04:15:26.422Z,11.32
2023-04-15T04:18:08.649Z,10.40
2023-04-15T04:20:51.290Z,11.00
2023-04-15T04:23:33.789Z,11.98
2023-04-15T04:26:16.331Z,12.27
2023-04-15T04:28:58.747Z,10.85
2023-04-15T04:31:41.621Z,10.48
2023-04-15T04:34:24.007Z,10.43
2023-04-15T04:37:07.335Z,9.98
2023-04-15T04:39:49.691Z,10.77
2023-04-15T04:42:32.168Z,11.45
2023-04-15T04:45:14.305Z,11.55
2023-04-15T04:47:56.824Z,10.65
2023-04-15T04:50:39.231Z,10.68
2023-04-15T04:53:21.819Z,11.15
2023-04-15T04:56:04.528Z,11.13
2023-04-15T04:58:47.405Z,15.02
2023-04-15T05:01:29.794Z,15.43
2023-04-15T05:04:12.485Z,15.25
2023-04-15T05:06:55.032Z,17.17
2023-04-15T05:09:40.187Z,14.17
2023-04-15T05:12:22.697Z,14.05
2023-04-15T05:15:06.652Z,13.93
2023-04-15T05:17:48.895Z,12.23
2023-04-15T05:20:31.464Z,11.43
2023-04-15T05:23:13.798Z,12.13
2023-04-15T05:25:56.512Z,12.48
2023-04-15T05:28:38.968Z,11.85
2023-04-15T05:31:21.574Z,10.85
2023-04-15T05:34:03.795Z,10.95
2023-04-15T05:36:46.482Z,10.85
2023-04-15T05:39:28.760Z,11.13
2023-04-15T05:42:11.508Z,9.55
2023-04-15T05:44:53.817Z,12.27
2023-04-15T05:47:37.526Z,13.35
2023-04-15T05:50:21.010Z,12.25
2023-04-15T05:53:03.539Z,12.30
2023-04-15T05:55:46.064Z,13.10
2023-04-15T05:58:28.600Z,13.32
2023-04-15T06:01:10.915Z,12.23
2023-04-15T06:03:53.685Z,12.43
2023-04-15T06:06:36.088Z,12.57
2023-04-15T06:09:18.773Z,12.23
2023-04-15T06:12:02.085Z,12.65
2023-04-15T06:14:44.582Z,11.55
2023-04-15T06:17:26.840Z,11.77
2023-04-15T06:20:10.023Z,11.90
2023-04-15T06:22:55.712Z,13.07
2023-04-15T06:28:23.088Z,12.38
2023-04-15T06:31:08.405Z,11.95
2023-04-15T06:33:53.722Z,12.27
2023-04-15T06:36:36.305Z,12.07
2023-04-15T06:39:18.882Z,12.30
2023-04-15T06:42:01.751Z,12.65
2023-04-15T06:44:49.657Z,12.00
2023-04-15T06:47:36.980Z,12.20
2023-04-15T06:50:19.443Z,11.93
2023-04-15T06:53:02.194Z,10.82
2023-04-15T06:55:44.858Z,12.30
2023-04-15T06:58:27.692Z,12.90
2023-04-15T07:01:10.114Z,12.80
2023-04-15T07:03:52.785Z,13.70
2023-04-15T07:06:35.765Z,15.35
2023-04-15T07:09:18.618Z,15.27
2023-04-15T07:12:01.131Z,14.02
2023-04-15T07:14:43.560Z,13.45
2023-04-15T07:17:25.848Z,14.45
2023-04-15T07:20:09.125Z,14.15
2023-04-15T07:22:51.499Z,12.82
2023-04-15T07:25:34.018Z,13.82
2023-04-15T07:28:16.481Z,17.23
2023-04-15T07:30:59.120Z,15.50
2023-04-15T07:33:41.914Z,15.43
2023-04-15T07:36:24.456Z,14.20
2023-04-15T07:39:07.130Z,15.23
2023-04-15T07:41:49.932Z,15.48
2023-04-15T07:44:32.630Z,16.17
2023-04-15T07:47:15.850Z,14.90
2023-04-15T07:49:58.782Z,14.65
2023-04-15T07:52:41.579Z,15.02
2023-04-15T07:55:28.237Z,15.35
2023-04-15T07:58:11.117Z,16.52
2023-04-15T08:00:55.343Z,17.27
2023-04-15T08:03:41.380Z,16.67
2023-04-15T08:06:25.125Z,16.98
2023-04-15T08:09:08.392Z,17.52
2023-04-15T08:11:53.639Z,16.50
2023-04-15T08:14:36.260Z,15.50
2023-04-15T08:17:18.597Z,18.52
2023-04-15T08:20:01.559Z,13.82
2023-04-15T08:22:43.909Z,13.63
2023-04-15T08:25:27.320Z,13.75
2023-04-15T08:28:09.610Z,18.90
2023-04-15T08:30:53.574Z,13.85
2023-04-15T08:33:36.055Z,13.80
2023-04-15T08:36:18.994Z,11.27
2023-04-15T08:39:05.072Z,11.15
2023-04-15T08:42:07.200Z,13.02
2023-04-15T08:44:49.931Z,12.10
2023-04-15T08:47:34.503Z,13.00
2023-04-15T08:50:17.505Z,11.25
2023-04-15T08:53:00.736Z,13.88
2023-04-15T08:55:45.833Z,14.07
2023-04-15T08:58:28.656Z,14.65
2023-04-15T09:01:13.300Z,12.82
2023-04-15T09:03:57.895Z,13.73
2023-04-15T09:06:41.206Z,15.85
2023-04-15T09:09:24.209Z,17.75
2023-04-15T09:12:07.490Z,16.05
2023-04-15T09:14:50.709Z,15.43
2023-04-15T09:17:34.775Z,11.52
2023-04-15T09:20:20.187Z,13.60
2023-04-15T09:23:13.770Z,18.58
2023-04-15T09:25:58.106Z,16.17
2023-04-15T09:28:43.633Z,15.15
2023-04-15T09:31:31.437Z,12.82
2023-04-15T09:34:13.808Z,14.13
2023-04-15T09:36:57.526Z,13.48
2023-04-15T09:39:48.531Z,14.15
2023-04-15T09:42:32.623Z,14.45
2023-04-15T09:45:15.252Z,11.10
2023-04-15T09:48:17.067Z,9.70
2023-04-15T09:51:00.797Z,10.20
2023-04-15T09:53:43.249Z,10.52
2023-04-15T09:56:36.186Z,10.32
2023-04-15T09:59:20.063Z,10.90
2023-04-15T10:02:05.922Z,10.32
2023-04-15T10:04:49.692Z,9.38
2023-04-15T10:07:33.165Z,10.55
2023-04-15T10:10:16.314Z,9.73
2023-04-15T10:12:58.948Z,9.60
2023-04-15T10:15:46.156Z,8.82
2023-04-15T10:18:30.426Z,8.73
2023-04-15T10:21:15.756Z,8.77
2023-04-15T10:23:59.103Z,8.13
2023-04-15T10:26:42.512Z,9.85
2023-04-15T10:29:27.362Z,9.32
2023-04-15T10:32:10.773Z,9.88
2023-04-15T10:34:55.062Z,11.68
2023-04-15T10:37:38.921Z,5.07
2023-04-15T10:40:32.777Z,5.60
2023-04-15T10:43:25.713Z,5.47
2023-04-15T10:46:08.111Z,4.70
2023-04-15T10:48:52.529Z,4.18
2023-04-15T10:51:41.677Z,4.68
2023-04-15T10:54:27.417Z,4.30
2023-04-15T10:57:16.389Z,4.80
2023-04-15T10:59:58.978Z,4.60
2023-04-15T11:02:53.635Z,6.10
2023-04-15T11:05:42.155Z,5.03
2023-04-15T11:08:55.469Z,5.22
2023-04-15T11:12:11.238Z,4.18
2023-04-15T11:14:53.523Z,5.68
2023-04-15T11:17:37.644Z,5.43
2023-04-15T11:20:20.304Z,5.00
2023-04-15T11:23:08.124Z,4.47
2023-04-15T11:25:58.656Z,4.47
2023-04-15T11:28:43.452Z,7.53
2023-04-15T11:31:28.823Z,8.40
2023-04-15T11:34:11.357Z,8.30
2023-04-15T11:36:58.975Z,6.75
2023-04-15T11:39:42.256Z,8.98
2023-04-15T11:42:24.502Z,6.10
2023-04-15T11:45:16.137Z,4.15
2023-04-15T11:48:16.380Z,4.07
2023-04-15T11:51:04.516Z,4.47
2023-04-15T11:53:52.051Z,3.78
2023-04-15T11:56:37.372Z,3.92
2023-04-15T11:59:19.721Z,2.40
2023-04-15T12:02:13.045Z,4.53
2023-04-15T12:05:05.343Z,4.00
2023-04-15T12:08:08.176Z,6.13
2023-04-15T12:10:50.503Z,4.53
2023-04-15T12:13:33.096Z,5.28
2023-04-15T12:16:20.843Z,4.10
2023-04-15T12:19:08.532Z,3.72
2023-04-15T12:21:51.183Z,2.50
2023-04-15T12:24:35.976Z,3.40
2023-04-15T12:27:18.258Z,4.93
2023-04-15T12:30:05.379Z,5.00
2023-04-15T12:32:48.788Z,5.75
2023-04-15T12:35:31.400Z,6.35
2023-04-15T12:38:14.878Z,8.70
2023-04-15T12:40:59.324Z,12.15
2023-04-15T12:43:42.238Z,14.07
2023-04-15T12:46:25.205Z,7.18
2023-04-15T12:49:08.150Z,5.28
2023-04-15T12:51:52.756Z,5.25
2023-04-15T12:54:36.115Z,7.30
2023-04-15T12:57:18.792Z,5.70
2023-04-15T13:00:01.182Z,9.00
2023-04-15T13:02:44.853Z,6.07
2023-04-15T13:05:27.171Z,5.35
2023-04-15T13:08:09.640Z,5.75
2023-04-15T13:10:51.989Z,6.90
2023-04-15T13:13:34.677Z,6.53
2023-04-15T13:16:17.035Z,5.30
2023-04-15T13:19:00.659Z,5.43
2023-04-15T13:21:43.998Z,4.85
2023-04-15T13:24:26.688Z,6.10
2023-04-15T13:27:08.953Z,11.50
2023-04-15T13:29:51.488Z,7.15
2023-04-15T13:32:33.728Z,9.23
2023-04-15T13:35:16.342Z,7.85
2023-04-15T13:37:58.531Z,7.00
2023-04-15T13:40:41.350Z,9.35
2023-04-15T13:43:23.629Z,8.70
2023-04-15T13:46:06.282Z,7.75
2023-04-15T13:48:48.694Z,6.10
2023-04-15T13:51:31.889Z,13.20
2023-04-15T13:54:14.299Z,26.70
2023-04-15T13:56:58.020Z,25.95
2023-04-15T13:59:40.472Z,16.98
2023-04-15T14:02:23.518Z,10.20
2023-04-15T14:05:06.555Z,10.73
2023-04-15T14:07:49.006Z,16.85
2023-04-15T14:10:31.231Z,16.55
2023-04-15T14:13:13.922Z,9.88
2023-04-15T14:15:58.268Z,11.43
2023-04-15T14:18:40.993Z,11.90
2023-04-15T14:21:23.285Z,10.85
2023-04-15T14:24:06.359Z,11.38
2023-04-15T14:26:48.666Z,11.10
2023-04-15T14:29:31.245Z,8.70
2023-04-15T14:32:14.741Z,23.88
2023-04-15T14:34:58.539Z,10.05
2023-04-15T14:37:40.864Z,11.55
2023-04-15T14:40:23.395Z,15.57
2023-04-15T14:43:05.677Z,10.68
2023-04-15T14:45:48.331Z,11.02
2023-04-15T14:48:32.191Z,9.73
2023-04-15T14:51:14.876Z,8.57
2023-04-15T14:53:57.114Z,12.32
2023-04-15T14:56:39.644Z,12.32
2023-04-15T14:59:22.047Z,12.13
2023-04-15T15:02:04.642Z,11.55
2023-04-15T15:04:47.119Z,9.27
2023-04-15T15:07:29.659Z,6.70
2023-04-15T15:10:12.238Z,54.20
2023-04-15T15:12:55.700Z,31.55
2023-04-15T15:15:39.115Z,34.67
2023-04-15T15:18:21.835Z,33.25
2023-04-15T15:21:04.141Z,12.18
2023-04-15T15:23:48.294Z,9.20
2023-04-15T15:26:30.522Z,8.57
2023-04-15T15:29:13.226Z,14.43
2023-04-15T15:31:55.524Z,10.30
2023-04-15T15:34:38.137Z,10.73
2023-04-15T15:37:20.427Z,12.50
2023-04-15T15:40:07.117Z,16.92
2023-04-15T15:42:51.026Z,14.30
2023-04-15T15:45:34.317Z,13.90
2023-04-15T15:48:16.625Z,13.90
2023-04-15T15:50:59.107Z,12.75
2023-04-15T15:53:41.857Z,15.00
2023-04-15T15:56:24.725Z,15.40
2023-04-15T15:59:07.071Z,17.50
2023-04-15T16:01:50.612Z,12.40
2023-04-15T16:04:33.131Z,12.68
2023-04-15T16:07:15.964Z,13.80
2023-04-15T16:09:58.304Z,16.73
2023-04-15T16:12:41.820Z,15.32
2023-04-15T16:15:26.709Z,19.25
2023-04-15T16:18:09.381Z,16.25
2023-04-15T16:20:51.578Z,17.60
2023-04-15T16:23:34.308Z,20.25
2023-04-15T16:26:17.107Z,18.38
2023-04-15T16:29:00.491Z,19.83
2023-04-15T16:31:42.838Z,12.05
2023-04-15T16:34:25.527Z,16.98
2023-04-15T16:37:07.779Z,18.63
2023-04-15T16:39:50.465Z,14.68
2023-04-15T16:42:32.885Z,16.00
2023-04-15T16:45:15.889Z,13.43
2023-04-15T16:47:58.298Z,9.32
2023-04-15T16:50:40.863Z,9.70
2023-04-15T16:53:23.371Z,7.35
2023-04-15T16:56:07.005Z,7.63
2023-04-15T16:58:49.362Z,7.45
2023-04-15T17:01:32.147Z,9.30
2023-04-15T17:04:14.797Z,12.40
2023-04-15T17:06:57.937Z,20.65
2023-04-15T17:09:40.798Z,31.42
2023-04-15T17:12:23.634Z,31.10
2023-04-15T17:15:07.242Z,20.08
2023-04-15T17:17:50.032Z,20.15
2023-04-15T17:20:32.623Z,17.48
2023-04-15T17:23:15.034Z,17.98
2023-04-15T17:25:57.222Z,14.05
2023-04-15T17:28:39.692Z,14.05
2023-04-15T17:31:21.911Z,15.20
2023-04-15T17:34:10.730Z,14.40
2023-04-15T17:36:55.118Z,15.23
2023-04-15T17:39:37.769Z,14.20
2023-04-15T17:42:19.948Z,14.63
2023-04-15T17:45:02.905Z,18.20
2023-04-15T17:47:45.947Z,19.70
2023-04-15T17:50:28.671Z,24.15
2023-04-15T17:53:11.233Z,30.83
2023-04-15T17:55:53.845Z,29.63
2023-04-15T17:58:36.584Z,27.75
2023-04-15T18:01:19.372Z,23.85
2023-04-15T18:04:02.096Z,18.48
2023-04-15T18:06:45.433Z,18.48
2023-04-15T18:09:28.018Z,19.73
2023-04-15T18:12:10.923Z,21.52
2023-04-15T18:14:53.761Z,26.65
2023-04-15T18:17:36.996Z,26.48
2023-04-15T18:20:19.921Z,26.02
2023-04-15T18:23:02.699Z,21.98
2023-04-15T18:25:45.277Z,21.35
2023-04-15T18:28:29.189Z,22.20
2023-04-15T18:31:12.425Z,24.38
2023-04-15T18:33:54.952Z,22.67
2023-04-15T18:36:37.156Z,23.15
2023-04-15T18:39:19.645Z,19.63
2023-04-15T18:42:02.172Z,17.00
2023-04-15T18:44:45.239Z,14.60
2023-04-15T18:47:28.501Z,16.13
2023-04-15T18:50:11.445Z,11.50
2023-04-15T18:52:53.841Z,10.80
2023-04-15T18:55:36.480Z,9.48
2023-04-15T18:58:18.981Z,8.05
2023-04-15T19:01:01.561Z,7.88
2023-04-15T19:03:44.705Z,9.35
2023-04-15T19:06:27.470Z,10.20
2023-04-15T19:09:10.123Z,10.07
2023-04-15T19:11:52.614Z,9.57
2023-04-15T19:14:34.977Z,7.88
2023-04-15T19:17:17.499Z,5.35
2023-04-15T19:19:59.973Z,4.88
2023-04-15T19:22:43.363Z,5.10
2023-04-15T19:25:25.766Z,5.05
2023-04-15T19:28:08.468Z,5.43
2023-04-15T19:30:52.429Z,5.95
2023-04-15T19:33:34.993Z,5.38
2023-04-15T19:36:18.356Z,4.35
2023-04-15T19:39:01.610Z,4.93
2023-04-15T19:41:44.845Z,5.40
2023-04-15T19:44:27.991Z,6.13
2023-04-15T19:47:11.108Z,6.07
2023-04-15T19:49:53.899Z,6.72
2023-04-15T19:52:36.610Z,6.22
2023-04-15T19:55:19.237Z,5.57
2023-04-15T19:58:01.853Z,4.15
2023-04-15T20:00:44.697Z,4.50
2023-04-15T20:03:27.161Z,4.53
2023-04-15T20:06:09.778Z,5.10
2023-04-15T20:08:52.259Z,4.55
2023-04-15T20:12:09.283Z,4.53
2023-04-15T20:14:37.935Z,5.32
2023-04-15T20:17:20.706Z,18.13
2023-04-15T20:20:04.798Z,13.32
2023-04-15T20:22:49.184Z,17.88
2023-04-15T20:25:31.719Z,8.40
2023-04-15T20:28:14.285Z,12.88
2023-04-15T20:30:56.739Z,7.05
2023-04-15T20:33:39.280Z,11.50
2023-04-15T20:36:21.576Z,7.32
2023-04-15T20:39:04.360Z,6.00
2023-04-15T20:41:47.161Z,5.88
2023-04-15T20:44:30.330Z,6.35
2023-04-15T20:47:12.668Z,5.85
2023-04-15T20:49:55.450Z,5.00
2023-04-15T20:52:38.393Z,4.57
2023-04-15T20:55:21.698Z,4.63
2023-04-15T20:58:04.149Z,5.13
2023-04-15T21:00:47.140Z,4.50
2023-04-15T21:03:29.848Z,4.75
2023-04-15T21:06:12.792Z,4.32
2023-04-15T21:08:55.441Z,4.65
2023-04-15T21:11:57.485Z,4.60
2023-04-15T21:14:40.687Z,4.68
2023-04-15T21:17:23.196Z,4.55
2023-04-15T21:20:06.242Z,4.90
2023-04-15T21:22:49.101Z,5.30
2023-04-15T21:25:31.314Z,4.97
2023-04-15T21:28:13.703Z,6.00
2023-04-15T21:30:59.478Z,6.13
2023-04-15T21:33:42.113Z,6.30
2023-04-15T21:36:24.347Z,6.60
2023-04-15T21:39:07.260Z,7.07
2023-04-15T21:41:49.823Z,7.05
2023-04-15T21:44:32.453Z,6.75
2023-04-15T21:47:14.860Z,7.45
2023-04-15T21:49:57.486Z,7.30
2023-04-15T21:52:39.714Z,7.57
2023-04-15T21:55:22.497Z,8.10
2023-04-15T21:58:04.796Z,8.35
2023-04-15T22:00:47.875Z,9.30
2023-04-15T22:03:33.981Z,9.68
2023-04-15T22:06:17.051Z,9.52
2023-04-15T22:08:59.307Z,10.52
2023-04-15T22:11:41.732Z,11.73
2023-04-15T22:14:23.903Z,11.52
2023-04-15T22:17:06.735Z,11.95
2023-04-15T22:19:49.054Z,12.10
2023-04-15T22:22:44.056Z,12.48
2023-04-15T22:25:26.999Z,12.87
2023-04-15T22:28:09.454Z,12.32
2023-04-15T22:30:54.183Z,11.57
2023-04-15T22:33:36.676Z,11.70
2023-04-15T22:36:18.877Z,11.63
2023-04-15T22:39:01.257Z,12.80
2023-04-15T22:41:43.811Z,12.18
2023-04-15T22:44:26.266Z,12.07
2023-04-15T22:47:08.411Z,11.65
2023-04-15T22:49:50.799Z,10.95
2023-04-15T22:52:33.115Z,11.85
2023-04-15T22:55:17.186Z,11.23
2023-04-15T22:57:59.669Z,11.15
2023-04-15T23:00:42.350Z,10.90
2023-04-15T23:03:24.820Z,11.07
2023-04-15T23:06:07.659Z,12.30
2023-04-15T23:08:50.324Z,12.65
2023-04-15T23:11:32.774Z,12.80
2023-04-15T23:14:14.922Z,13.35
2023-04-15T23:16:58.302Z,12.43
2023-04-15T23:19:40.767Z,13.60
2023-04-15T23:22:23.378Z,12.23
2023-04-15T23:25:06.554Z,12.85
2023-04-15T23:27:49.002Z,14.05
2023-04-15T23:30:31.311Z,13.48
2023-04-15T23:33:13.784Z,14.02
2023-04-15T23:35:56.074Z,14.85
2023-04-15T23:38:38.548Z,13.35
2023-04-15T23:41:22.162Z,13.82
2023-04-15T23:44:04.661Z,12.95
2023-04-15T23:46:47.064Z,14.38
2023-04-15T23:49:29.507Z,14.73
2023-04-15T23:52:11.847Z,14.50
2023-04-15T23:54:54.381Z,14.77
2023-04-15T23:57:36.575Z,14.60
